createdAt,value
2018-06-15T00:01:11.493Z,99154.00
2018-06-15T00:03:20.898Z,99156.00
2018-06-15T00:05:27.250Z,99158.00
2018-06-15T00:07:32.730Z,99161.00
2018-06-15T00:09:38.239Z,99166.00
2018-06-15T00:11:43.739Z,99160.00
2018-06-15T00:13:49.025Z,99172.00
2018-06-15T00:15:55.028Z,99172.00
2018-06-15T00:18:00.246Z,99171.00
2018-06-15T00:20:05.928Z,99168.00
2018-06-15T00:22:22.501Z,99174.00
2018-06-15T00:24:28.007Z,99173.00
2018-06-15T00:26:33.742Z,99167.00
2018-06-15T00:28:39.602Z,99169.00
2018-06-15T00:30:44.631Z,99173.00
2018-06-15T00:32:50.176Z,99177.00
2018-06-15T00:34:55.481Z,99167.00
2018-06-15T00:37:00.980Z,99168.00
2018-06-15T00:39:10.723Z,99164.00
2018-06-15T00:41:20.084Z,99163.00
2018-06-15T00:43:26.219Z,99164.00
2018-06-15T00:45:31.962Z,99164.00
2018-06-15T00:47:37.190Z,99162.00
2018-06-15T00:49:42.585Z,99162.00
2018-06-15T00:51:48.096Z,99164.00
2018-06-15T00:53:54.129Z,99163.00
2018-06-15T00:55:59.691Z,99159.00
2018-06-15T00:58:04.995Z,99161.00
2018-06-15T01:00:13.392Z,99160.00
2018-06-15T01:02:22.449Z,99161.00
2018-06-15T01:04:27.992Z,99161.00
2018-06-15T01:06:33.322Z,99164.00
2018-06-15T01:08:39.411Z,99163.00
2018-06-15T01:11:01.169Z,99169.00
2018-06-15T01:13:14.601Z,99171.00
2018-06-15T01:15:28.568Z,99163.00
2018-06-15T01:17:37.551Z,99164.00
2018-06-15T01:19:53.354Z,99165.00
2018-06-15T01:22:07.004Z,99161.00
2018-06-15T01:24:16.826Z,99166.00
2018-06-15T01:26:26.468Z,99169.00
2018-06-15T01:28:32.423Z,99168.00
2018-06-15T01:30:38.655Z,99161.00
2018-06-15T01:32:44.124Z,99164.00
2018-06-15T01:34:49.879Z,99165.00
2018-06-15T01:36:55.693Z,99164.00
2018-06-15T01:39:01.434Z,99164.00
2018-06-15T01:41:08.523Z,99165.00
2018-06-15T01:43:16.827Z,99171.00
2018-06-15T01:45:23.907Z,99167.00
2018-06-15T01:47:29.515Z,99159.00
2018-06-15T01:49:35.206Z,99164.00
2018-06-15T01:51:40.991Z,99160.00
2018-06-15T01:53:46.510Z,99162.00
2018-06-15T01:55:52.129Z,99155.00
2018-06-15T01:57:58.083Z,99159.00
2018-06-15T02:00:03.686Z,99156.00
2018-06-15T02:02:11.530Z,99157.00
2018-06-15T02:04:21.688Z,99160.00
2018-06-15T02:06:27.282Z,99155.00
2018-06-15T02:08:32.726Z,99149.00
2018-06-15T02:10:38.838Z,99149.00
2018-06-15T02:12:44.598Z,99152.00
2018-06-15T02:14:50.472Z,99153.00
2018-06-15T02:16:56.351Z,99151.00
2018-06-15T02:19:02.278Z,99150.00
2018-06-15T02:21:10.637Z,99153.00
2018-06-15T02:23:18.800Z,99158.00
2018-06-15T02:25:25.538Z,99157.00
2018-06-15T02:27:31.179Z,99164.00
2018-06-15T02:29:36.915Z,99161.00
2018-06-15T02:31:43.014Z,99162.00
2018-06-15T02:33:48.722Z,99166.00
2018-06-15T02:35:54.177Z,99173.00
2018-06-15T02:37:59.930Z,99166.00
2018-06-15T02:40:05.074Z,99169.00
2018-06-15T02:42:14.341Z,99170.00
2018-06-15T02:44:23.774Z,99168.00
2018-06-15T02:46:29.012Z,99169.00
2018-06-15T02:48:34.822Z,99167.00
2018-06-15T02:50:40.766Z,99170.00
2018-06-15T02:52:46.455Z,99167.00
2018-06-15T02:54:52.415Z,99168.00
2018-06-15T02:56:58.551Z,99178.00
2018-06-15T02:59:05.373Z,99171.00
2018-06-15T03:01:14.806Z,99172.00
2018-06-15T03:03:29.721Z,99174.00
2018-06-15T03:05:35.584Z,99181.00
2018-06-15T03:07:41.187Z,99177.00
2018-06-15T03:09:47.261Z,99182.00
2018-06-15T03:11:53.329Z,99184.00
2018-06-15T03:13:59.046Z,99184.00
2018-06-15T03:16:05.347Z,99185.00
2018-06-15T03:18:14.207Z,99184.00
2018-06-15T03:20:24.034Z,99183.00
2018-06-15T03:22:29.225Z,99183.00
2018-06-15T03:24:35.001Z,99188.00
2018-06-15T03:26:40.726Z,99191.00
2018-06-15T03:28:46.678Z,99192.00
2018-06-15T03:30:51.849Z,99185.00
2018-06-15T03:32:57.370Z,99189.00
2018-06-15T03:35:03.496Z,99188.00
2018-06-15T03:37:11.655Z,99190.00
2018-06-15T03:39:20.576Z,99190.00
2018-06-15T03:41:28.742Z,99187.00
2018-06-15T03:43:34.846Z,99196.00
2018-06-15T03:45:40.862Z,99196.00
2018-06-15T03:47:47.321Z,99198.00
2018-06-15T03:49:53.158Z,99196.00
2018-06-15T03:51:59.979Z,99191.00
2018-06-15T03:54:06.527Z,99191.00
2018-06-15T03:56:15.571Z,99197.00
2018-06-15T03:58:23.842Z,99199.00
2018-06-15T04:00:30.066Z,99202.00
2018-06-15T04:02:35.769Z,99199.00
2018-06-15T04:04:41.636Z,99202.00
2018-06-15T04:06:47.923Z,99200.00
2018-06-15T04:08:54.178Z,99205.00
2018-06-15T04:11:00.099Z,99204.00
2018-06-15T04:13:07.661Z,99207.00
2018-06-15T04:15:16.308Z,99205.00
2018-06-15T04:17:24.187Z,99202.00
2018-06-15T04:19:30.090Z,99209.00
2018-06-15T04:21:36.372Z,99207.00
2018-06-15T04:23:42.546Z,99208.00
2018-06-15T04:25:48.203Z,99205.00
2018-06-15T04:27:54.781Z,99196.00
2018-06-15T04:30:00.898Z,99203.00
2018-06-15T04:32:08.761Z,99198.00
2018-06-15T04:34:21.319Z,99206.00
2018-06-15T04:36:27.389Z,99204.00
2018-06-15T04:38:33.383Z,99204.00
2018-06-15T04:40:39.140Z,99207.00
2018-06-15T04:42:45.303Z,99204.00
2018-06-15T04:44:51.246Z,99203.00
2018-06-15T04:46:57.434Z,99196.00
2018-06-15T04:49:08.150Z,99206.00
2018-06-15T04:51:15.937Z,99206.00
2018-06-15T04:53:24.902Z,99212.00
2018-06-15T04:55:30.074Z,99204.00
2018-06-15T04:57:35.290Z,99210.00
2018-06-15T04:59:40.730Z,99211.00
2018-06-15T05:01:46.354Z,99213.00
2018-06-15T05:03:52.113Z,99213.00
2018-06-15T05:05:57.915Z,99218.00
2018-06-15T05:08:10.063Z,99220.00
2018-06-15T05:12:34.632Z,99226.00
2018-06-15T05:15:53.070Z,99226.00
2018-06-15T05:17:58.650Z,99228.00
2018-06-15T05:20:10.145Z,99224.00
2018-06-15T05:22:18.044Z,99227.00
2018-06-15T05:24:26.454Z,99221.00
2018-06-15T05:26:31.935Z,99231.00
2018-06-15T05:28:37.398Z,99226.00
2018-06-15T05:30:43.782Z,99224.00
2018-06-15T05:32:49.386Z,99225.00
2018-06-15T05:34:55.878Z,99227.00
2018-06-15T05:37:01.105Z,99232.00
2018-06-15T05:39:12.513Z,99236.00
2018-06-15T05:41:23.937Z,99233.00
2018-06-15T05:43:29.291Z,99237.00
2018-06-15T05:45:35.207Z,99232.00
2018-06-15T05:47:41.158Z,99234.00
2018-06-15T05:49:47.659Z,99238.00
2018-06-15T05:51:53.308Z,99237.00
2018-06-15T05:53:58.815Z,99234.00
2018-06-15T05:56:06.510Z,99235.00
2018-06-15T05:58:15.471Z,99233.00
2018-06-15T06:00:25.068Z,99238.00
2018-06-15T06:02:31.471Z,99230.00
2018-06-15T06:04:37.755Z,99230.00
2018-06-15T06:06:43.731Z,99228.00
2018-06-15T06:08:49.578Z,99233.00
2018-06-15T06:11:03.232Z,99241.00
2018-06-15T06:13:14.728Z,99234.00
2018-06-15T06:15:28.516Z,99233.00
2018-06-15T06:17:34.085Z,99234.00
2018-06-15T06:19:42.427Z,99235.00
2018-06-15T06:21:48.424Z,99239.00
2018-06-15T06:23:55.845Z,99234.00
2018-06-15T06:26:02.241Z,99238.00
2018-06-15T06:28:11.555Z,99241.00
2018-06-15T06:30:24.339Z,99247.00
2018-06-15T06:32:29.980Z,99244.00
2018-06-15T06:34:35.308Z,99248.00
2018-06-15T06:36:50.368Z,99249.00
2018-06-15T06:38:56.946Z,99241.00
2018-06-15T06:41:03.022Z,99247.00
2018-06-15T06:43:16.857Z,99252.00
2018-06-15T06:45:28.425Z,99250.00
2018-06-15T06:47:42.250Z,99247.00
2018-06-15T06:49:48.749Z,99246.00
2018-06-15T06:51:54.878Z,99244.00
2018-06-15T06:54:00.733Z,99247.00
2018-06-15T06:56:08.028Z,99248.00
2018-06-15T06:58:17.200Z,99244.00
2018-06-15T07:00:27.672Z,99248.00
2018-06-15T07:02:33.974Z,99250.00
2018-06-15T07:04:39.519Z,99251.00
2018-06-15T07:08:57.078Z,99253.00
2018-06-15T07:11:04.092Z,99254.00
2018-06-15T07:13:10.768Z,99261.00
2018-06-15T07:15:19.298Z,99252.00
2018-06-15T07:17:26.306Z,99264.00
2018-06-15T07:19:37.510Z,99257.00
2018-06-15T07:21:43.034Z,99256.00
2018-06-15T07:23:51.138Z,99257.00
2018-06-15T07:25:56.482Z,99259.00
2018-06-15T07:28:02.434Z,99262.00
2018-06-15T07:30:10.479Z,99260.00
2018-06-15T07:32:21.334Z,99261.00
2018-06-15T07:34:29.934Z,99256.00
2018-06-15T07:36:37.125Z,99253.00
2018-06-15T07:38:42.675Z,99256.00
2018-06-15T07:40:48.402Z,99256.00
2018-06-15T07:42:53.854Z,99254.00
2018-06-15T07:44:59.479Z,99255.00
2018-06-15T07:47:09.668Z,99258.00
2018-06-15T07:49:18.460Z,99256.00
2018-06-15T07:51:25.870Z,99257.00
2018-06-15T07:53:31.658Z,99266.00
2018-06-15T07:55:37.938Z,99264.00
2018-06-15T07:57:43.317Z,99269.00
2018-06-15T07:59:51.402Z,99264.00
2018-06-15T08:01:57.346Z,99270.00
2018-06-15T08:04:05.772Z,99274.00
2018-06-15T08:06:14.658Z,99270.00
2018-06-15T08:08:27.568Z,99277.00
2018-06-15T08:10:34.302Z,99275.00
2018-06-15T08:12:41.706Z,99273.00
2018-06-15T08:14:47.483Z,99279.00
2018-06-15T08:16:52.800Z,99274.00
2018-06-15T08:18:58.325Z,99277.00
2018-06-15T08:21:03.740Z,99276.00
2018-06-15T08:23:13.912Z,99280.00
2018-06-15T08:25:24.710Z,99280.00
2018-06-15T08:27:31.738Z,99281.00
2018-06-15T08:29:37.755Z,99277.00
2018-06-15T08:31:45.394Z,99279.00
2018-06-15T08:33:51.447Z,99278.00
2018-06-15T08:35:57.776Z,99280.00
2018-06-15T08:38:05.881Z,99278.00
2018-06-15T08:40:14.859Z,99271.00
2018-06-15T08:42:22.536Z,99277.00
2018-06-15T08:44:28.383Z,99272.00
2018-06-15T08:46:36.769Z,99267.00
2018-06-15T08:48:42.203Z,99280.00
2018-06-15T08:50:47.861Z,99269.00
2018-06-15T08:52:53.127Z,99269.00
2018-06-15T08:54:58.426Z,99271.00
2018-06-15T08:57:04.163Z,99270.00
2018-06-15T08:59:11.690Z,99266.00
2018-06-15T09:01:19.068Z,99270.00
2018-06-15T09:03:25.785Z,99262.00
2018-06-15T09:05:31.246Z,99267.00
2018-06-15T09:07:36.392Z,99270.00
2018-06-15T09:09:43.396Z,99269.00
2018-06-15T09:11:48.630Z,99266.00
2018-06-15T09:13:54.705Z,99262.00
2018-06-15T09:16:00.946Z,99267.00
2018-06-15T09:18:09.123Z,99268.00
2018-06-15T09:20:19.380Z,99265.00
2018-06-15T09:22:27.461Z,99264.00
2018-06-15T09:24:37.509Z,99271.00
2018-06-15T09:26:42.813Z,99260.00
2018-06-15T09:28:49.914Z,99265.00
2018-06-15T09:30:55.331Z,99265.00
2018-06-15T09:33:01.283Z,99274.00
2018-06-15T09:35:08.950Z,99265.00
2018-06-15T09:37:17.355Z,99267.00
2018-06-15T09:39:24.297Z,99260.00
2018-06-15T09:41:29.886Z,99260.00
2018-06-15T09:43:36.782Z,99251.00
2018-06-15T09:45:43.354Z,99264.00
2018-06-15T09:47:49.163Z,99256.00
2018-06-15T09:49:54.324Z,99259.00
2018-06-15T09:51:59.682Z,99260.00
2018-06-15T09:54:05.846Z,99259.00
2018-06-15T09:56:15.336Z,99250.00
2018-06-15T09:58:23.203Z,99259.00
2018-06-15T10:00:33.436Z,99254.00
2018-06-15T10:02:38.858Z,99250.00
2018-06-15T10:04:44.135Z,99247.00
2018-06-15T10:06:50.622Z,99258.00
2018-06-15T10:08:56.588Z,99251.00
2018-06-15T10:11:01.831Z,99256.00
2018-06-15T10:13:10.298Z,99250.00
2018-06-15T10:15:18.694Z,99255.00
2018-06-15T10:17:24.407Z,99255.00
2018-06-15T10:19:29.986Z,99251.00
2018-06-15T10:21:35.219Z,99257.00
2018-06-15T10:23:40.357Z,99255.00
2018-06-15T10:25:46.054Z,99246.00
2018-06-15T10:27:51.246Z,99252.00
2018-06-15T10:29:56.691Z,99246.00
2018-06-15T10:32:03.069Z,99250.00
2018-06-15T10:34:09.692Z,99247.00
2018-06-15T10:36:17.010Z,99245.00
2018-06-15T10:38:24.667Z,99250.00
2018-06-15T10:40:30.996Z,99249.00
2018-06-15T10:42:36.845Z,99249.00
2018-06-15T10:44:42.454Z,99245.00
2018-06-15T10:46:47.700Z,99247.00
2018-06-15T10:48:53.023Z,99253.00
2018-06-15T10:50:58.850Z,99251.00
2018-06-15T10:53:04.301Z,99244.00
2018-06-15T10:55:12.757Z,99250.00
2018-06-15T10:57:22.699Z,99250.00
2018-06-15T10:59:29.521Z,99246.00
2018-06-15T11:01:35.010Z,99238.00
2018-06-15T11:03:42.153Z,99241.00
2018-06-15T11:05:48.221Z,99242.00
2018-06-15T11:07:53.644Z,99243.00
